createdAt,value
2018-07-08T00:00:47.581Z,20.20
2018-07-08T00:03:15.205Z,20.10
2018-07-08T00:05:42.801Z,20.10
2018-07-08T00:08:10.457Z,20.10
2018-07-08T00:10:39.255Z,20.10
2018-07-08T00:13:07.881Z,20.00
2018-07-08T00:15:35.457Z,20.00
2018-07-08T00:18:03.110Z,19.90
2018-07-08T00:20:30.773Z,19.90
2018-07-08T00:22:58.367Z,19.90
2018-07-08T00:25:26.233Z,19.90
2018-07-08T00:27:53.943Z,19.80
2018-07-08T00:30:21.649Z,19.80
2018-07-08T00:32:49.211Z,19.70
2018-07-08T00:35:16.809Z,19.80
2018-07-08T00:37:44.401Z,19.80
2018-07-08T00:40:11.999Z,19.70
2018-07-08T00:42:39.642Z,19.70
2018-07-08T00:45:07.269Z,19.70
2018-07-08T00:47:35.018Z,19.60
2018-07-08T00:50:02.688Z,19.60
2018-07-08T00:52:30.321Z,19.50
2018-07-08T00:54:57.945Z,19.50
2018-07-08T00:57:25.537Z,19.50
2018-07-08T00:59:53.265Z,19.40
2018-07-08T01:02:20.849Z,19.40
2018-07-08T01:04:48.459Z,19.40
2018-07-08T01:07:16.141Z,19.30
2018-07-08T01:09:43.714Z,19.40
2018-07-08T01:12:11.289Z,19.30
2018-07-08T01:14:38.859Z,19.30
2018-07-08T01:17:06.477Z,19.30
2018-07-08T01:19:34.139Z,19.30
2018-07-08T01:22:01.712Z,19.30
2018-07-08T01:24:29.305Z,19.30
2018-07-08T01:26:56.962Z,19.20
2018-07-08T01:29:24.575Z,19.10
2018-07-08T01:31:52.436Z,19.10
2018-07-08T01:34:20.013Z,19.10
2018-07-08T01:36:47.581Z,19.10
2018-07-08T01:39:15.391Z,19.00
2018-07-08T01:41:42.943Z,19.00
2018-07-08T01:44:10.598Z,19.00
2018-07-08T01:46:38.170Z,19.00
2018-07-08T01:49:05.801Z,18.90
2018-07-08T01:51:33.400Z,18.80
2018-07-08T01:54:01.010Z,18.90
2018-07-08T01:56:28.689Z,18.80
2018-07-08T01:58:56.550Z,18.80
2018-07-08T02:01:24.220Z,18.70
2018-07-08T02:03:52.230Z,18.70
2018-07-08T02:06:19.833Z,18.70
2018-07-08T02:08:47.754Z,18.60
2018-07-08T02:11:15.862Z,18.60
2018-07-08T02:13:43.424Z,18.60
2018-07-08T02:16:11.026Z,18.60
2018-07-08T02:18:38.752Z,18.50
2018-07-08T02:21:06.338Z,18.50
2018-07-08T02:23:33.938Z,18.50
2018-07-08T02:26:01.591Z,18.50
2018-07-08T02:28:29.748Z,18.40
2018-07-08T02:30:57.430Z,18.40
2018-07-08T02:33:25.541Z,18.40
2018-07-08T02:35:53.497Z,18.40
2018-07-08T02:38:21.097Z,18.30
2018-07-08T02:40:49.145Z,18.30
2018-07-08T02:43:16.729Z,18.30
2018-07-08T02:45:44.291Z,18.30
2018-07-08T02:48:11.913Z,18.20
2018-07-08T02:50:39.844Z,18.20
2018-07-08T02:53:07.409Z,18.20
2018-07-08T02:55:35.007Z,18.10
2018-07-08T02:58:02.598Z,18.10
2018-07-08T03:00:30.176Z,18.10
2018-07-08T03:02:57.767Z,18.10
2018-07-08T03:05:25.359Z,18.10
2018-07-08T03:07:53.169Z,18.00
2018-07-08T03:10:20.922Z,17.90
2018-07-08T03:12:48.944Z,18.00
2018-07-08T03:15:16.637Z,18.00
2018-07-08T03:17:44.246Z,17.90
2018-07-08T03:20:11.989Z,17.90
2018-07-08T03:22:39.591Z,17.90
2018-07-08T03:25:07.349Z,17.90
2018-07-08T03:27:34.857Z,17.80
2018-07-08T03:30:02.432Z,17.80
2018-07-08T03:32:30.125Z,17.80
2018-07-08T03:34:57.819Z,17.80
2018-07-08T03:37:25.422Z,17.80
2018-07-08T03:39:53.045Z,17.80
2018-07-08T03:42:20.585Z,17.80
2018-07-08T03:44:48.535Z,17.80
2018-07-08T03:47:16.953Z,17.70
2018-07-08T03:49:44.513Z,17.70
2018-07-08T03:52:12.119Z,17.80
2018-07-08T03:54:39.783Z,17.80
2018-07-08T03:57:07.365Z,17.80
2018-07-08T03:59:34.926Z,17.80
2018-07-08T04:02:02.557Z,17.90
2018-07-08T04:04:30.639Z,17.90
2018-07-08T04:06:58.255Z,18.00
2018-07-08T04:09:25.854Z,18.00
2018-07-08T04:11:53.441Z,18.00
2018-07-08T04:14:20.987Z,18.00
2018-07-08T04:16:48.833Z,18.10
2018-07-08T04:19:16.412Z,18.20
2018-07-08T04:21:44.006Z,18.20
2018-07-08T04:24:11.785Z,18.30
2018-07-08T04:26:39.465Z,18.40
2018-07-08T04:29:07.017Z,18.50
2018-07-08T04:31:34.657Z,18.60
2018-07-08T04:34:02.246Z,18.70
2018-07-08T04:36:29.788Z,18.90
2018-07-08T04:38:57.402Z,19.80
2018-07-08T04:41:24.943Z,21.10
2018-07-08T04:43:52.833Z,22.20
2018-07-08T04:46:20.496Z,23.50
2018-07-08T04:48:48.037Z,24.80
2018-07-08T04:51:15.590Z,25.90
2018-07-08T04:53:43.215Z,26.90
2018-07-08T04:56:10.800Z,27.80
2018-07-08T04:58:38.492Z,28.20
2018-07-08T05:01:06.149Z,28.20
2018-07-08T05:03:33.748Z,28.50
2018-07-08T05:06:01.303Z,29.30
2018-07-08T05:08:29.079Z,30.00
2018-07-08T05:10:56.610Z,30.30
2018-07-08T05:13:24.191Z,30.90
2018-07-08T05:15:51.981Z,31.20
2018-07-08T05:18:19.824Z,31.80
2018-07-08T05:20:47.359Z,32.30
2018-07-08T05:23:14.970Z,32.50
2018-07-08T05:25:42.634Z,32.90
2018-07-08T05:28:10.190Z,33.10
2018-07-08T05:30:37.772Z,33.30
2018-07-08T05:33:05.575Z,33.40
2018-07-08T05:35:33.233Z,33.40
2018-07-08T05:38:00.918Z,33.20
2018-07-08T05:40:28.556Z,32.90
2018-07-08T05:42:56.192Z,32.60
2018-07-08T05:45:23.812Z,32.20
2018-07-08T05:47:51.506Z,31.80
2018-07-08T05:50:19.161Z,31.30
2018-07-08T05:52:46.762Z,30.90
2018-07-08T05:55:14.435Z,30.50
2018-07-08T05:57:42.400Z,30.30
2018-07-08T06:00:10.154Z,30.00
2018-07-08T06:02:37.748Z,29.70
2018-07-08T06:05:05.449Z,29.60
2018-07-08T06:07:33.063Z,29.20
2018-07-08T06:10:00.668Z,28.90
2018-07-08T06:12:28.390Z,28.90
2018-07-08T06:14:55.969Z,29.00
2018-07-08T06:17:23.653Z,29.00
2018-07-08T06:19:51.198Z,28.90
2018-07-08T06:22:18.927Z,29.00
2018-07-08T06:24:46.512Z,29.00
2018-07-08T06:27:14.123Z,29.10
2018-07-08T06:29:41.775Z,29.40
2018-07-08T06:34:36.852Z,29.40
2018-07-08T06:37:04.634Z,29.70
2018-07-08T06:39:32.312Z,29.80
2018-07-08T06:41:59.838Z,30.00
2018-07-08T06:44:27.461Z,30.00
2018-07-08T06:46:55.057Z,29.80
2018-07-08T06:49:22.633Z,30.10
2018-07-08T06:51:50.219Z,30.50
2018-07-08T06:54:17.816Z,30.60
2018-07-08T06:56:45.404Z,30.90
2018-07-08T06:59:13.023Z,31.40
2018-07-08T07:01:40.636Z,31.70
2018-07-08T07:04:08.424Z,32.20
2018-07-08T07:06:36.008Z,32.90
2018-07-08T07:09:05.178Z,33.40
2018-07-08T07:11:32.740Z,34.10
2018-07-08T07:14:00.330Z,34.60
2018-07-08T07:16:27.891Z,35.00
2018-07-08T07:18:55.447Z,35.30
2018-07-08T07:21:23.097Z,35.60
2018-07-08T07:23:50.669Z,35.80
2018-07-08T07:26:18.315Z,36.00
2018-07-08T07:31:13.508Z,36.50
2018-07-08T07:33:41.106Z,36.80
2018-07-08T07:36:08.881Z,37.20
2018-07-08T07:38:36.551Z,37.60
2018-07-08T07:41:04.118Z,37.50
2018-07-08T07:43:31.729Z,37.70
2018-07-08T07:45:59.429Z,37.70
2018-07-08T07:48:26.969Z,38.40
2018-07-08T07:50:54.559Z,38.70
2018-07-08T07:53:22.129Z,39.30
2018-07-08T07:55:49.835Z,39.80
2018-07-08T07:58:17.509Z,40.50
2018-07-08T08:00:45.108Z,41.20
2018-07-08T08:03:12.669Z,41.90
2018-07-08T08:05:40.289Z,42.60
2018-07-08T08:08:07.892Z,43.50
2018-07-08T08:10:35.559Z,44.40
2018-07-08T08:13:03.142Z,44.70
2018-07-08T08:15:30.730Z,44.30
2018-07-08T08:17:58.321Z,44.20
2018-07-08T08:20:26.000Z,44.50
2018-07-08T08:22:53.542Z,45.20
2018-07-08T08:25:21.194Z,45.70
2018-07-08T08:27:48.894Z,46.00
2018-07-08T08:30:16.470Z,45.80
2018-07-08T08:32:44.111Z,45.50
2018-07-08T08:35:12.925Z,46.00
2018-07-08T08:37:43.618Z,45.60
2018-07-08T08:40:12.016Z,45.80
2018-07-08T08:42:39.580Z,45.70
2018-07-08T08:45:08.908Z,45.40
2018-07-08T08:47:36.566Z,45.10
2018-07-08T08:50:04.769Z,44.70
2018-07-08T08:52:32.418Z,45.40
2018-07-08T08:54:59.998Z,45.60
2018-07-08T08:57:27.601Z,45.60
2018-07-08T08:59:55.711Z,44.80
2018-07-08T09:02:23.353Z,44.00
2018-07-08T09:04:50.931Z,41.60
2018-07-08T09:07:19.665Z,39.30
2018-07-08T09:09:47.281Z,37.20
2018-07-08T09:12:15.183Z,35.30
2018-07-08T09:14:42.751Z,33.70
2018-07-08T09:17:10.667Z,32.50
2018-07-08T09:19:38.683Z,31.70
2018-07-08T09:22:07.137Z,31.00
2018-07-08T09:24:35.077Z,30.40
2018-07-08T09:27:02.919Z,30.20
2018-07-08T09:29:30.503Z,29.70
2018-07-08T09:31:58.236Z,29.30
2018-07-08T09:34:25.957Z,28.70
2018-07-08T09:36:54.049Z,28.30
2018-07-08T09:39:21.736Z,28.00
2018-07-08T09:41:49.401Z,27.60
2018-07-08T09:46:46.351Z,26.80
2018-07-08T09:49:14.329Z,26.60
2018-07-08T09:51:42.160Z,26.40
2018-07-08T09:54:09.868Z,26.10
2018-07-08T09:56:37.510Z,25.90
2018-07-08T09:59:05.122Z,25.90
2018-07-08T10:01:38.302Z,26.00
2018-07-08T10:04:06.426Z,26.00
2018-07-08T10:06:34.038Z,26.20
2018-07-08T10:09:01.640Z,26.20
2018-07-08T10:11:29.203Z,26.30
2018-07-08T10:13:56.843Z,26.30
2018-07-08T10:16:24.404Z,26.40
2018-07-08T10:18:51.943Z,26.50
2018-07-08T10:21:19.643Z,26.50
2018-07-08T10:23:47.248Z,26.60
2018-07-08T10:26:14.909Z,26.70
2018-07-08T10:28:42.479Z,26.60
2018-07-08T10:31:11.097Z,26.70
2018-07-08T10:33:50.193Z,26.70
2018-07-08T10:36:17.974Z,26.60
2018-07-08T10:38:45.567Z,26.60
2018-07-08T10:41:13.179Z,26.60
2018-07-08T10:43:40.804Z,26.60
2018-07-08T10:46:08.353Z,26.60
2018-07-08T10:48:36.067Z,26.60
2018-07-08T10:51:03.673Z,26.60
2018-07-08T10:53:31.337Z,26.70
2018-07-08T10:55:58.993Z,26.70
2018-07-08T10:58:26.687Z,26.60
2018-07-08T11:00:54.265Z,26.70
2018-07-08T11:03:21.929Z,26.60
2018-07-08T11:05:49.623Z,26.50
2018-07-08T11:08:17.231Z,26.50
2018-07-08T11:10:44.904Z,26.40
2018-07-08T11:13:12.531Z,26.30
2018-07-08T11:15:40.302Z,26.40
2018-07-08T11:18:07.896Z,26.40
2018-07-08T11:20:35.550Z,26.40
2018-07-08T11:23:03.149Z,26.40
2018-07-08T11:27:58.260Z,26.20
2018-07-08T11:30:25.855Z,26.20
2018-07-08T11:32:53.449Z,26.20
2018-07-08T11:35:21.117Z,26.30
2018-07-08T11:37:48.747Z,26.20
2018-07-08T11:40:16.312Z,26.20
2018-07-08T11:42:44.169Z,26.30
2018-07-08T11:45:11.797Z,26.40
2018-07-08T11:47:39.365Z,26.50
2018-07-08T11:50:06.971Z,26.60
2018-07-08T11:52:34.550Z,26.60
2018-07-08T11:55:02.199Z,26.70
2018-07-08T11:57:30.017Z,26.70
2018-07-08T11:59:57.627Z,26.80
2018-07-08T12:02:25.313Z,26.80
2018-07-08T12:04:52.947Z,26.80
2018-07-08T12:07:20.563Z,26.80
2018-07-08T12:09:48.254Z,26.80
2018-07-08T12:12:15.917Z,26.80
2018-07-08T12:14:43.481Z,26.80
2018-07-08T12:17:11.094Z,26.80
2018-07-08T12:19:38.962Z,26.90
2018-07-08T12:22:06.632Z,26.80
2018-07-08T12:24:34.239Z,26.80
2018-07-08T12:27:01.846Z,26.90
2018-07-08T12:29:29.547Z,26.90
2018-07-08T12:31:57.182Z,26.90
2018-07-08T12:34:24.849Z,27.00
2018-07-08T12:36:52.475Z,27.10
2018-07-08T12:39:20.066Z,27.20
2018-07-08T12:41:47.761Z,27.20
2018-07-08T12:44:15.450Z,27.30
2018-07-08T12:46:43.083Z,27.30
2018-07-08T12:49:10.735Z,27.50
2018-07-08T12:51:38.347Z,27.60
2018-07-08T12:54:06.027Z,27.50
2018-07-08T12:56:33.634Z,27.50
2018-07-08T12:59:01.292Z,27.50
2018-07-08T13:01:28.853Z,27.50
2018-07-08T13:03:56.459Z,27.50
2018-07-08T13:06:24.157Z,27.40
2018-07-08T13:08:51.619Z,27.50
2018-07-08T13:11:19.221Z,27.50
2018-07-08T13:13:46.841Z,27.50
2018-07-08T13:16:14.453Z,27.50
2018-07-08T13:18:42.136Z,27.50
2018-07-08T13:21:09.774Z,27.70
2018-07-08T13:23:37.405Z,27.70
2018-07-08T13:26:05.091Z,27.80
2018-07-08T13:28:32.737Z,27.80
2018-07-08T13:31:00.389Z,27.80
2018-07-08T13:33:27.971Z,27.70
2018-07-08T13:35:55.547Z,27.70
2018-07-08T13:38:23.173Z,27.70
2018-07-08T13:40:50.829Z,27.70
2018-07-08T13:43:18.385Z,27.80
2018-07-08T13:45:46.074Z,27.80
2018-07-08T13:48:13.751Z,27.80
2018-07-08T13:50:41.729Z,27.80
2018-07-08T13:53:09.625Z,27.80
2018-07-08T13:55:37.353Z,27.70
2018-07-08T13:58:04.963Z,27.70
2018-07-08T14:00:32.587Z,27.70
2018-07-08T14:03:00.222Z,27.70
2018-07-08T14:05:27.804Z,27.80
2018-07-08T14:07:55.629Z,27.80
2018-07-08T14:10:23.289Z,27.80
2018-07-08T14:12:50.970Z,27.90
2018-07-08T14:15:18.640Z,27.90
2018-07-08T14:17:46.280Z,27.90
2018-07-08T14:20:13.934Z,27.90
2018-07-08T14:22:41.556Z,27.90
2018-07-08T14:25:09.202Z,27.90
2018-07-08T14:27:36.893Z,27.90
2018-07-08T14:30:05.044Z,28.00
2018-07-08T14:32:32.797Z,27.90
2018-07-08T14:35:00.422Z,28.00
2018-07-08T14:37:28.040Z,27.90
2018-07-08T14:39:55.676Z,28.00
2018-07-08T14:42:23.276Z,28.00
2018-07-08T14:44:50.880Z,27.90
2018-07-08T14:49:46.130Z,28.00
2018-07-08T14:52:13.702Z,28.00
2018-07-08T14:54:41.404Z,28.00
2018-07-08T14:57:09.090Z,28.00
2018-07-08T14:59:36.770Z,27.90
2018-07-08T15:02:04.580Z,27.90
2018-07-08T15:06:59.766Z,27.80
2018-07-08T15:09:27.510Z,27.80
2018-07-08T15:11:55.136Z,27.70
2018-07-08T15:14:22.950Z,27.70
2018-07-08T15:16:50.635Z,27.80
2018-07-08T15:19:18.374Z,27.90
2018-07-08T15:21:46.138Z,27.90
2018-07-08T15:24:13.753Z,27.90
2018-07-08T15:26:41.438Z,27.90
2018-07-08T15:29:09.062Z,27.90
2018-07-08T15:34:05.307Z,27.90
2018-07-08T15:36:33.070Z,27.90
2018-07-08T15:39:01.422Z,27.90
2018-07-08T15:41:29.150Z,27.90
2018-07-08T15:43:56.750Z,27.90
2018-07-08T15:46:24.375Z,27.90
2018-07-08T15:48:52.031Z,27.90
2018-07-08T15:51:19.639Z,27.80
2018-07-08T15:53:47.333Z,27.80
2018-07-08T15:56:14.927Z,27.80
2018-07-08T15:58:42.543Z,27.70
2018-07-08T16:03:37.639Z,27.70
2018-07-08T16:06:05.276Z,27.80
2018-07-08T16:08:32.877Z,27.80
2018-07-08T16:11:00.436Z,27.80
2018-07-08T16:13:28.127Z,27.90
2018-07-08T16:15:56.139Z,27.80
2018-07-08T16:18:23.840Z,27.80
2018-07-08T16:20:52.746Z,27.80
2018-07-08T16:23:20.842Z,27.80
2018-07-08T16:25:48.588Z,27.80
2018-07-08T16:28:16.127Z,27.70
2018-07-08T16:30:43.801Z,27.70
2018-07-08T16:33:11.369Z,27.70
2018-07-08T16:38:10.719Z,27.70
2018-07-08T16:40:38.408Z,27.70
2018-07-08T16:43:06.084Z,27.70
2018-07-08T16:45:33.720Z,27.70
2018-07-08T16:48:01.426Z,27.70
2018-07-08T16:50:29.443Z,27.60
2018-07-08T16:52:57.067Z,27.60
2018-07-08T16:55:24.666Z,27.60
2018-07-08T17:00:19.910Z,27.60
2018-07-08T17:02:47.698Z,27.60
2018-07-08T17:05:15.526Z,27.60
2018-07-08T17:07:43.110Z,27.60
2018-07-08T17:12:38.312Z,27.50
2018-07-08T17:15:06.125Z,27.40
2018-07-08T17:17:34.235Z,27.50
2018-07-08T17:20:01.977Z,27.40
2018-07-08T17:22:29.541Z,27.40
2018-07-08T17:24:57.196Z,27.40
2018-07-08T17:27:24.822Z,27.40
2018-07-08T17:29:52.506Z,27.40
2018-07-08T17:32:20.130Z,27.30
2018-07-08T17:34:47.788Z,27.20
2018-07-08T17:37:15.398Z,27.20
2018-07-08T17:39:43.014Z,27.20
2018-07-08T17:42:11.087Z,27.20
2018-07-08T17:44:40.059Z,27.20
2018-07-08T17:47:07.723Z,27.20
2018-07-08T17:49:35.575Z,27.10
2018-07-08T17:52:03.146Z,27.10
2018-07-08T17:54:30.806Z,27.10
2018-07-08T17:56:58.400Z,27.00
2018-07-08T17:59:26.130Z,26.90
2018-07-08T18:01:53.987Z,26.90
2018-07-08T18:04:21.671Z,26.90
2018-07-08T18:06:49.290Z,26.80
2018-07-08T18:09:16.924Z,26.80
2018-07-08T18:11:44.582Z,26.70
2018-07-08T18:14:12.177Z,26.70
2018-07-08T18:16:39.774Z,26.60
2018-07-08T18:19:07.439Z,26.60
2018-07-08T18:21:35.200Z,26.50
2018-07-08T18:24:03.023Z,26.50
2018-07-08T18:26:30.842Z,26.40
2018-07-08T18:28:58.494Z,26.40
2018-07-08T18:31:26.195Z,26.30
2018-07-08T18:33:53.784Z,26.40
2018-07-08T18:36:22.815Z,26.50
2018-07-08T18:38:50.746Z,26.60
2018-07-08T18:41:18.345Z,26.60
2018-07-08T18:43:45.984Z,26.60
2018-07-08T18:46:13.641Z,26.60
2018-07-08T18:48:41.268Z,26.50
2018-07-08T18:53:36.603Z,26.20
2018-07-08T18:56:04.346Z,26.10
2018-07-08T18:58:32.015Z,25.90
2018-07-08T19:00:59.594Z,25.80
2018-07-08T19:03:27.266Z,25.80
2018-07-08T19:05:54.937Z,25.70
2018-07-08T19:08:22.615Z,25.60
2018-07-08T19:10:50.332Z,25.50
2018-07-08T19:13:18.627Z,25.50
2018-07-08T19:15:46.339Z,25.40
2018-07-08T19:18:13.978Z,25.30
2018-07-08T19:20:41.611Z,25.30
2018-07-08T19:23:09.335Z,25.20
2018-07-08T19:25:37.163Z,25.10
2018-07-08T19:28:04.951Z,25.00
2018-07-08T19:30:32.596Z,25.00
2018-07-08T19:33:00.283Z,24.90
2018-07-08T19:35:27.900Z,24.90
2018-07-08T19:37:55.497Z,24.80
2018-07-08T19:40:23.378Z,24.70
2018-07-08T19:42:51.529Z,24.60
2018-07-08T19:45:19.267Z,24.60
2018-07-08T19:47:47.049Z,24.50
2018-07-08T19:50:14.704Z,24.40
2018-07-08T19:52:42.352Z,24.30
2018-07-08T19:55:10.057Z,24.30
2018-07-08T19:57:37.911Z,24.20
2018-07-08T20:00:06.053Z,24.10
2018-07-08T20:02:33.840Z,24.10
2018-07-08T20:05:01.526Z,24.00
2018-07-08T20:07:29.183Z,23.90
2018-07-08T20:09:56.840Z,23.90
2018-07-08T20:12:24.514Z,23.80
2018-07-08T20:14:52.270Z,23.70
2018-07-08T20:17:20.374Z,23.70
2018-07-08T20:22:15.684Z,23.60
2018-07-08T20:24:43.814Z,23.60
2018-07-08T20:27:11.462Z,23.50
2018-07-08T20:29:39.114Z,23.40
2018-07-08T20:34:34.330Z,23.30
2018-07-08T20:37:01.932Z,23.20
2018-07-08T20:39:29.584Z,23.20
2018-07-08T20:41:57.238Z,23.10
2018-07-08T20:44:24.838Z,23.00
2018-07-08T20:49:20.148Z,22.90
2018-07-08T20:51:47.818Z,22.80
2018-07-08T20:54:15.510Z,22.80
2018-07-08T20:56:43.193Z,22.80
2018-07-08T20:59:10.834Z,22.70
2018-07-08T21:01:39.438Z,22.70
2018-07-08T21:04:07.050Z,22.60
2018-07-08T21:06:34.748Z,22.60
2018-07-08T21:09:02.528Z,22.50
2018-07-08T21:11:30.162Z,22.50
2018-07-08T21:13:57.931Z,22.50
2018-07-08T21:16:25.650Z,22.40
2018-07-08T21:18:53.557Z,22.30
2018-07-08T21:21:21.118Z,22.30
2018-07-08T21:23:48.996Z,22.20
2018-07-08T21:26:16.575Z,22.10
2018-07-08T21:31:11.880Z,22.00
2018-07-08T21:33:39.982Z,22.00
2018-07-08T21:36:08.253Z,22.00
2018-07-08T21:38:35.852Z,21.90
2018-07-08T21:41:03.964Z,21.90
2018-07-08T21:43:31.619Z,21.90
2018-07-08T21:45:59.357Z,21.80
2018-07-08T21:48:26.921Z,21.70
2018-07-08T21:50:54.582Z,21.70
2018-07-08T21:53:22.233Z,21.60
2018-07-08T21:55:49.834Z,21.50
2018-07-08T21:58:17.574Z,21.50
2018-07-08T22:01:21.179Z,21.50
2018-07-08T22:03:49.615Z,21.40
2018-07-08T22:06:18.189Z,21.40
2018-07-08T22:08:45.885Z,21.40
2018-07-08T22:11:13.464Z,21.40
2018-07-08T22:13:41.671Z,21.30
2018-07-08T22:18:37.360Z,21.30
2018-07-08T22:21:05.484Z,21.20
2018-07-08T22:23:33.947Z,21.20
2018-07-08T22:26:02.229Z,21.10
2018-07-08T22:28:30.367Z,21.10
2018-07-08T22:30:58.030Z,21.00
2018-07-08T22:33:25.659Z,21.00
2018-07-08T22:35:53.226Z,20.90
2018-07-08T22:38:20.846Z,20.90
2018-07-08T22:40:48.414Z,20.90
2018-07-08T22:45:43.600Z,20.90
2018-07-08T22:48:11.250Z,20.90
2018-07-08T22:50:38.847Z,20.90
2018-07-08T22:53:06.593Z,20.80
2018-07-08T22:55:34.620Z,20.80
2018-07-08T22:58:02.729Z,20.80
2018-07-08T23:00:41.961Z,20.80
2018-07-08T23:03:49.097Z,20.80
2018-07-08T23:06:18.137Z,20.80
2018-07-08T23:08:45.868Z,20.70
2018-07-08T23:11:13.679Z,20.80
2018-07-08T23:13:41.405Z,20.80
2018-07-08T23:16:09.474Z,20.70
2018-07-08T23:18:37.189Z,20.70
2018-07-08T23:21:04.817Z,20.70
2018-07-08T23:26:07.110Z,20.60
2018-07-08T23:28:35.749Z,20.60
2018-07-08T23:31:03.949Z,20.50
2018-07-08T23:33:31.730Z,20.50
2018-07-08T23:36:00.167Z,20.40
2018-07-08T23:38:28.005Z,20.30
2018-07-08T23:40:55.828Z,20.30
2018-07-08T23:43:23.460Z,20.40
2018-07-08T23:45:51.319Z,20.40
2018-07-08T23:48:18.966Z,20.40
2018-07-08T23:50:46.764Z,20.30
2018-07-08T23:53:14.871Z,20.20
2018-07-08T23:55:42.682Z,20.20
2018-07-08T23:58:10.265Z,20.20
